Airfield :
LOGIN :

Register | Disclaimer

   EN    FR    IT 

 










Legend :    VFR   Marginal VFR   IFR   Intensive IFR   Very Intensive IFR
Visi :
Ceiling :
>= 8 km
>= 3000ft
5 to 8 km
1000 to 3000 ft
1500m to 5 km
500 to 1000 ft
800 to 1500m
200 to 500 ft
< 800m
< 200 ft
Symbols :   Thunderstorms  Fog  Heavy snow  Heavy precipitations  Wind > 20 kt
SIGMETs :     Misc.  Thunderstorms  Icing  Turbulence  Mountain Waves  Volcanic Ashes







- Airport Elevation : 1768 ft


LEHC - Huesca Pirineos

CURRENT METAR :
  • 252330Z AUTO 19006KT 9999 NCD 05/01 Q1019

EXPIRED METARs :
  • 252300Z AUTO 19009KT 9999 NCD 05/02 Q1019
  • 252230Z AUTO 20008KT 9999 NCD 06/01 Q1019
  • 252200Z AUTO 20008KT 9999 NCD 06/01 Q1019
  • 252130Z AUTO 21009KT 9999 NCD 07/01 Q1018
  • 252100Z AUTO 21009KT 9999 NCD 07/01 Q1018

TAF TAF LEHC
Valid from the 25 at 15:00 until the 26 at 15:00 UTC


251400Z 2515/2615 23012KT 9999 FEW060 TX19/2613Z TN02/2606Z
TEMPO 2515/2518 25015G25KT
BECMG 2518/2521 VRB03KT
BECMG 2609/2611 26010KT
No reported NOTAMs for that airfield.
1 SIGMET reported for the Madrid FIR (LECM) :
 
Severe turbulence
LECM SIGMET 1 VALID 252015/260000 LEVA
LECM MADRID FIR/UIR SEV TURB FCST WI N3936 W00730 - N3955 W00103 - N3903 W00119 - N3849 W00702 - N3936 W00730 FL220/300 STNR WKN=



MET'MAP, your aeronautical weather chart ! - Copyright ORBIFLY December 2007 - Disclaimer

ORBIFLY MET'MAP TEAM :

Programming & Development : Alexandra Zaïnal
Concept & Development : Baudouin d'Aumeries
Co-Development & Prog : Marc-Olivier Méhu
Technical & hardware support : Manuel Goepfert

Contact : metmap@orbifly.com




SOURCES & CREDITS :

   NOAA